Impacts TAF Board INFO
FOR SITUATIONAL AWARENESS. NOT TO BE USED FOR FLIGHT PLANNING PURPOSES.
IDs:

KIAD - Washington/Dulles In, VA, US

Issued at 2035 UTC 25 Feb 2018
Updated at 2150 UTC 25 Feb 2018
Potential Impact None Slight Moderate High
Time<<26/22Z 26/23Z 27/00Z 27/01Z 27/02Z 27/03Z 27/04Z 27/05Z 27/06Z 27/07Z 27/08Z 27/09Z 27/10Z
Type PRVL PRVL
VIS >6 >6
CIG -- --
Cover SCT SCT
FltCat VFR VFR
WX -- --
WDir 330 330
WSpd 7 7
WGst -- --

Raw TAF
KIAD 252035Z 2521/2624 23010KT 4SM BR OVC008
  FM252300 25009KT P6SM OVC045
  FM260000 30007KT P6SM OVC250
  FM261300 34006KT P6SM OVC110
  FM261600 33007KT P6SM SCT100


METAR Board
Radar Display
Forecast Discussion

FOR SITUATIONAL AWARENESS. NOT TO BE USED FOR FLIGHT PLANNING PURPOSES.